createdAt,value
2022-07-30T00:03:45.025Z,79.92
2022-07-30T00:08:52.577Z,80.02
2022-07-30T00:13:57.586Z,82.20
2022-07-30T00:19:02.614Z,81.30
2022-07-30T00:24:11.278Z,80.76
2022-07-30T00:29:16.429Z,82.00
2022-07-30T00:34:21.583Z,85.44
2022-07-30T00:39:30.665Z,85.24
2022-07-30T00:44:35.860Z,91.37
2022-07-30T00:49:46.338Z,94.31
2022-07-30T00:54:54.021Z,93.89
2022-07-30T00:59:59.307Z,95.68
2022-07-30T01:05:04.142Z,97.47
2022-07-30T01:10:14.039Z,97.88
2022-07-30T01:15:22.588Z,98.12
2022-07-30T01:20:32.865Z,98.98
2022-07-30T01:25:55.712Z,99.75
2022-07-30T01:31:01.918Z,100.00
2022-07-30T01:36:11.710Z,100.00
2022-07-30T01:41:22.299Z,100.00
2022-07-30T01:46:28.495Z,100.00
2022-07-30T01:51:37.358Z,100.00
2022-07-30T01:56:47.433Z,100.00
2022-07-30T02:01:52.478Z,100.00
2022-07-30T02:07:04.337Z,100.00
2022-07-30T02:12:32.828Z,100.00
2022-07-30T02:17:53.346Z,100.00
2022-07-30T02:23:03.721Z,100.00
2022-07-30T02:28:14.406Z,100.00
2022-07-30T02:33:23.928Z,100.00
2022-07-30T02:38:32.935Z,100.00
2022-07-30T02:43:40.796Z,100.00
2022-07-30T02:48:49.141Z,100.00
2022-07-30T02:53:56.474Z,100.00
2022-07-30T02:59:06.102Z,100.00
2022-07-30T03:04:12.132Z,100.00
2022-07-30T03:09:19.098Z,100.00
2022-07-30T03:14:27.237Z,100.00
2022-07-30T03:19:35.881Z,100.00
2022-07-30T03:24:43.783Z,100.00
2022-07-30T03:29:55.362Z,100.00
2022-07-30T03:35:06.194Z,100.00
2022-07-30T03:40:13.835Z,100.00
2022-07-30T03:45:23.211Z,100.00
2022-07-30T03:50:31.126Z,100.00
2022-07-30T03:55:36.752Z,100.00
2022-07-30T04:01:22.448Z,100.00
2022-07-30T04:06:28.289Z,100.00
2022-07-30T04:11:41.631Z,100.00
2022-07-30T04:17:04.365Z,100.00
2022-07-30T04:22:12.663Z,100.00
2022-07-30T04:27:19.065Z,100.00
2022-07-30T04:32:26.677Z,100.00
2022-07-30T04:38:02.757Z,100.00
2022-07-30T04:43:08.074Z,100.00
2022-07-30T04:48:18.364Z,100.00
2022-07-30T04:53:51.309Z,100.00
2022-07-30T04:58:59.348Z,100.00
2022-07-30T05:04:10.764Z,100.00
2022-07-30T05:09:17.957Z,100.00
2022-07-30T05:14:23.153Z,100.00
2022-07-30T05:19:30.957Z,100.00
2022-07-30T05:24:35.868Z,100.00
2022-07-30T05:29:40.830Z,100.00
2022-07-30T05:34:55.150Z,100.00
2022-07-30T05:40:03.144Z,100.00
2022-07-30T05:45:47.316Z,100.00
2022-07-30T05:50:54.861Z,100.00
2022-07-30T05:56:01.234Z,100.00
2022-07-30T06:01:36.170Z,100.00
2022-07-30T06:06:52.133Z,100.00
2022-07-30T06:11:57.505Z,100.00
2022-07-30T06:17:03.374Z,100.00
2022-07-30T06:22:27.887Z,100.00
2022-07-30T06:27:39.578Z,100.00
2022-07-30T06:32:48.713Z,100.00
2022-07-30T06:38:07.458Z,100.00
2022-07-30T06:43:25.823Z,100.00
2022-07-30T06:48:46.950Z,100.00
2022-07-30T06:53:54.507Z,100.00
2022-07-30T06:59:20.803Z,99.70
2022-07-30T07:04:32.583Z,97.47
2022-07-30T07:09:44.662Z,93.99
2022-07-30T07:15:09.924Z,95.49
2022-07-30T07:20:16.250Z,94.99
2022-07-30T07:25:29.993Z,97.12
2022-07-30T07:30:35.320Z,98.17
2022-07-30T07:35:49.390Z,98.41
2022-07-30T07:41:07.707Z,97.87
2022-07-30T07:46:16.542Z,98.97
2022-07-30T07:51:47.066Z,99.61
2022-07-30T07:56:59.532Z,99.07
2022-07-30T08:02:16.675Z,99.84
2022-07-30T08:07:35.039Z,100.00
2022-07-30T08:12:51.735Z,100.00
2022-07-30T08:18:16.042Z,98.57
2022-07-30T08:23:33.110Z,98.69
2022-07-30T08:28:43.196Z,99.25
2022-07-30T08:33:48.345Z,99.45
2022-07-30T08:38:53.975Z,100.00
2022-07-30T08:44:03.860Z,100.00
2022-07-30T08:49:11.386Z,100.00
2022-07-30T08:54:23.880Z,100.00
2022-07-30T08:59:59.044Z,100.00
2022-07-30T09:04:57.864Z,100.00
2022-07-30T09:10:06.285Z,100.00
2022-07-30T09:15:17.918Z,100.00
2022-07-30T09:20:24.225Z,99.36
2022-07-30T09:25:38.384Z,100.00
2022-07-30T09:31:04.957Z,99.40
2022-07-30T09:36:35.031Z,99.36
2022-07-30T09:42:04.788Z,99.58
2022-07-30T09:47:12.610Z,99.19
2022-07-30T09:52:30.928Z,96.87
2022-07-30T09:57:37.495Z,94.60
2022-07-30T10:03:00.601Z,94.65
2022-07-30T10:08:46.190Z,95.60
2022-07-30T10:13:53.245Z,94.53
2022-07-30T10:19:03.630Z,97.42
2022-07-30T10:24:33.002Z,96.64
2022-07-30T10:30:03.533Z,92.42
2022-07-30T10:35:12.492Z,89.07
2022-07-30T10:40:40.957Z,91.21
2022-07-30T10:45:56.052Z,93.62
2022-07-30T10:51:04.183Z,91.25
2022-07-30T10:56:25.618Z,94.37
2022-07-30T11:02:14.946Z,93.70
2022-07-30T11:07:34.558Z,93.85
2022-07-30T11:12:55.953Z,91.66
2022-07-30T11:18:13.107Z,92.12
2022-07-30T11:23:40.773Z,93.17
2022-07-30T11:28:49.479Z,91.25
2022-07-30T11:34:17.234Z,87.72
2022-07-30T11:39:22.248Z,90.05
2022-07-30T11:44:39.486Z,88.08
2022-07-30T11:49:49.013Z,89.71
2022-07-30T11:54:56.310Z,85.51
2022-07-30T12:00:01.609Z,85.97
2022-07-30T12:05:10.653Z,87.69
2022-07-30T12:10:26.807Z,83.21
2022-07-30T12:15:34.185Z,85.20
2022-07-30T12:20:42.455Z,85.15
2022-07-30T12:25:47.792Z,85.62
2022-07-30T12:30:57.046Z,85.45
2022-07-30T12:36:04.525Z,83.05
2022-07-30T12:41:09.400Z,82.92
2022-07-30T12:46:16.466Z,84.60
2022-07-30T12:51:25.317Z,82.57
2022-07-30T12:56:33.685Z,82.89
2022-07-30T13:01:42.520Z,84.50
2022-07-30T13:07:07.224Z,83.53
2022-07-30T13:12:15.336Z,82.12
2022-07-30T13:17:21.437Z,81.04
2022-07-30T13:22:29.559Z,79.50
2022-07-30T13:27:34.843Z,76.77
2022-07-30T13:32:39.715Z,76.76
2022-07-30T13:37:47.279Z,75.20
2022-07-30T13:42:54.556Z,75.39
2022-07-30T13:48:00.123Z,75.75
2022-07-30T13:53:08.815Z,76.73
2022-07-30T13:58:13.870Z,76.25
2022-07-30T14:03:18.917Z,74.64
2022-07-30T14:08:28.678Z,74.21
2022-07-30T14:13:35.965Z,74.13
2022-07-30T14:18:40.921Z,74.78
2022-07-30T14:23:49.065Z,73.30
2022-07-30T14:28:54.005Z,73.39
2022-07-30T14:33:58.954Z,73.56
2022-07-30T14:39:07.612Z,73.57
2022-07-30T14:44:13.914Z,73.47
2022-07-30T14:49:22.622Z,73.98
2022-07-30T14:54:31.457Z,72.92
2022-07-30T14:59:36.475Z,73.09
2022-07-30T15:04:41.515Z,74.34
2022-07-30T15:09:49.021Z,74.25
2022-07-30T15:14:54.019Z,73.45
2022-07-30T15:19:59.094Z,72.85
2022-07-30T15:25:07.437Z,72.94
2022-07-30T15:30:14.063Z,73.75
2022-07-30T15:35:19.003Z,72.93
2022-07-30T15:40:26.615Z,75.17
2022-07-30T15:45:31.640Z,75.16
2022-07-30T15:50:56.483Z,75.41
2022-07-30T15:56:04.662Z,74.39
2022-07-30T16:01:09.691Z,72.41
2022-07-30T16:06:14.757Z,68.58
2022-07-30T16:11:22.289Z,67.48
2022-07-30T16:16:27.384Z,66.50
2022-07-30T16:21:32.256Z,69.01
2022-07-30T16:26:40.137Z,67.85
2022-07-30T16:31:45.041Z,70.40
2022-07-30T16:36:50.207Z,72.15
2022-07-30T16:41:57.789Z,73.55
2022-07-30T16:47:03.254Z,71.81
2022-07-30T16:52:08.610Z,72.23
2022-07-30T16:57:16.692Z,72.30
2022-07-30T17:02:21.648Z,72.74
2022-07-30T17:07:26.564Z,73.26
2022-07-30T17:12:34.127Z,75.35
2022-07-30T17:17:39.018Z,75.19
2022-07-30T17:22:44.021Z,72.51
2022-07-30T17:27:51.992Z,70.32
2022-07-30T17:32:57.336Z,70.96
2022-07-30T17:38:02.294Z,71.08
2022-07-30T17:43:11.656Z,71.98
2022-07-30T17:48:19.382Z,71.89
2022-07-30T17:53:24.441Z,72.18
2022-07-30T17:58:34.348Z,72.45
2022-07-30T18:03:39.165Z,73.52
2022-07-30T18:08:50.240Z,74.51
2022-07-30T18:13:57.774Z,74.75
2022-07-30T18:19:03.450Z,75.18
2022-07-30T18:24:09.405Z,76.38
2022-07-30T18:29:21.787Z,74.68
2022-07-30T18:34:26.743Z,74.47
2022-07-30T18:39:31.866Z,75.13
2022-07-30T18:44:41.972Z,74.97
2022-07-30T18:49:48.756Z,74.02
2022-07-30T18:54:53.707Z,75.60
2022-07-30T19:00:01.560Z,78.10
2022-07-30T19:05:08.125Z,78.21
2022-07-30T19:10:14.461Z,77.86
2022-07-30T19:15:22.125Z,79.44
2022-07-30T19:20:27.413Z,83.09
2022-07-30T19:25:33.924Z,91.59
2022-07-30T19:30:42.212Z,95.89
2022-07-30T19:35:47.374Z,97.54
2022-07-30T19:40:52.606Z,100.00
2022-07-30T19:46:00.106Z,100.00
2022-07-30T19:51:05.140Z,100.00
2022-07-30T19:56:20.873Z,100.00
2022-07-30T20:06:56.104Z,100.00
2022-07-30T20:12:03.811Z,100.00
2022-07-30T20:17:12.798Z,100.00
2022-07-30T20:22:20.001Z,100.00
2022-07-30T20:32:55.904Z,100.00
2022-07-30T20:38:03.887Z,100.00
2022-07-30T20:43:12.686Z,100.00
2022-07-30T20:48:25.408Z,100.00
2022-07-30T20:53:33.419Z,100.00
2022-07-30T20:58:41.758Z,100.00
2022-07-30T21:03:56.637Z,100.00
2022-07-30T21:09:02.366Z,100.00
2022-07-30T21:14:08.714Z,100.00
2022-07-30T21:19:18.526Z,100.00
2022-07-30T21:24:24.664Z,100.00
2022-07-30T21:29:29.735Z,100.00
2022-07-30T21:34:41.921Z,100.00
2022-07-30T21:39:47.231Z,100.00
2022-07-30T21:44:52.171Z,100.00
2022-07-30T21:50:00.103Z,100.00
2022-07-30T21:55:07.320Z,100.00
2022-07-30T22:00:21.933Z,100.00
2022-07-30T22:05:38.762Z,100.00
2022-07-30T22:10:45.618Z,100.00
2022-07-30T22:15:51.145Z,100.00
2022-07-30T22:20:58.948Z,100.00
2022-07-30T22:26:03.900Z,100.00
2022-07-30T22:31:14.156Z,100.00
2022-07-30T22:36:24.670Z,100.00
2022-07-30T22:41:30.253Z,100.00
2022-07-30T22:46:37.780Z,100.00
2022-07-30T22:52:01.086Z,100.00
2022-07-30T22:57:10.801Z,100.00
2022-07-30T23:02:16.156Z,100.00
2022-07-30T23:07:29.173Z,100.00
2022-07-30T23:12:15.623Z,100.00
2022-07-30T23:12:19.636Z,100.00
2022-07-30T23:12:44.874Z,100.00
2022-07-30T23:17:50.729Z,100.00
2022-07-30T23:22:58.346Z,100.00
2022-07-30T23:28:04.179Z,100.00
2022-07-30T23:33:09.137Z,100.00
2022-07-30T23:38:16.982Z,100.00
2022-07-30T23:43:21.965Z,100.00
2022-07-30T23:48:28.260Z,100.00
2022-07-30T23:53:36.865Z,100.00
2022-07-30T23:58:42.498Z,100.00
